Time;durP1;ratioP1;P1;durP2;ratioP2;P2;SDS_P1;SDS_P2;PMS_P1;PMS_P2;Temp;Humidity;BMP_temperature;BMP_pressure;BME280_temperature;BME280_humidity;BME280_pressure;Samples;Min_cycle;Max_cycle;Signal;HPM_P1;HPM_P2
2021/10/24 00:00:19;;;;;;;13.50;9.48;;;10.30;99.90;;;;;;5114262;28;20039;-75
2021/10/24 00:02:46;;;;;;;17.45;9.25;;;10.20;99.90;;;;;;5114460;28;20104;-75
2021/10/24 00:05:12;;;;;;;15.07;9.70;;;10.20;99.90;;;;;;5116124;28;20071;-75
2021/10/24 00:07:38;;;;;;;16.38;9.50;;;10.20;99.90;;;;;;5114405;28;20046;-75
2021/10/24 00:10:05;;;;;;;12.95;9.40;;;10.20;99.90;;;;;;5115470;28;20031;-75
2021/10/24 00:12:31;;;;;;;11.90;8.60;;;10.20;99.90;;;;;;5097533;28;20048;-75
2021/10/24 00:14:56;;;;;;;27.73;9.65;;;10.20;99.90;;;;;;5115669;28;20093;-75
2021/10/24 00:17:22;;;;;;;14.25;9.07;;;10.20;99.90;;;;;;5115534;28;20520;-75
2021/10/24 00:19:48;;;;;;;13.90;9.20;;;10.20;99.90;;;;;;5115064;28;20445;-75
2021/10/24 00:22:14;;;;;;;16.33;9.63;;;10.20;99.90;;;;;;5114136;28;20050;-75
2021/10/24 00:24:39;;;;;;;12.07;9.05;;;10.20;99.90;;;;;;5115420;28;20114;-75
2021/10/24 00:27:05;;;;;;;15.73;9.70;;;10.30;99.90;;;;;;5114043;28;20054;-75
2021/10/24 00:29:30;;;;;;;13.57;9.65;;;10.20;99.90;;;;;;5114947;28;20051;-75
2021/10/24 00:31:56;;;;;;;14.95;9.98;;;10.10;99.90;;;;;;5115100;28;20093;-75
2021/10/24 00:34:22;;;;;;;15.38;9.45;;;10.10;99.90;;;;;;5115625;28;20047;-75
2021/10/24 00:36:47;;;;;;;18.45;10.82;;;10.10;99.90;;;;;;5114244;28;20039;-75
2021/10/24 00:39:13;;;;;;;16.77;10.38;;;10.10;99.90;;;;;;5114318;28;20039;-75
2021/10/24 00:41:39;;;;;;;17.67;11.32;;;10.10;99.90;;;;;;5115561;28;20058;-75
2021/10/24 00:44:28;;;;;;;18.10;10.48;;;10.00;99.90;;;;;;5113836;28;20119;-75
2021/10/24 00:46:57;;;;;;;18.55;10.50;;;10.00;99.90;;;;;;5114346;28;20032;-75
2021/10/24 00:49:23;;;;;;;19.35;12.02;;;10.00;99.90;;;;;;5113449;28;20047;-75
2021/10/24 00:51:50;;;;;;;14.82;11.48;;;9.90;99.90;;;;;;5114833;28;20035;-75
2021/10/24 00:54:21;;;;;;;22.60;12.98;;;9.90;99.90;;;;;;5113993;28;20160;-75
2021/10/24 00:56:49;;;;;;;17.63;12.10;;;9.90;99.90;;;;;;5113555;28;20093;-75
2021/10/24 00:59:15;;;;;;;19.77;13.45;;;9.90;99.90;;;;;;5114703;28;20101;-75
2021/10/24 01:01:41;;;;;;;16.77;12.15;;;9.80;99.90;;;;;;5114783;28;20044;-75
2021/10/24 01:04:07;;;;;;;20.98;13.15;;;9.80;99.90;;;;;;5114560;28;20049;-75
2021/10/24 01:06:34;;;;;;;18.02;12.82;;;9.70;99.90;;;;;;5114632;27;20040;-75
2021/10/24 01:09:00;;;;;;;18.75;12.68;;;9.70;99.90;;;;;;5114288;28;20042;-75
2021/10/24 01:11:27;;;;;;;19.73;12.82;;;9.70;99.90;;;;;;5114685;28;20040;-75
2021/10/24 01:13:54;;;;;;;18.88;13.00;;;9.70;99.90;;;;;;5114428;28;20035;-75
2021/10/24 01:16:19;;;;;;;23.10;13.73;;;9.70;99.90;;;;;;5113052;28;20047;-75
2021/10/24 01:18:46;;;;;;;17.33;12.50;;;9.60;99.90;;;;;;5114114;28;20049;-75
2021/10/24 01:21:12;;;;;;;19.85;14.80;;;9.60;99.90;;;;;;5114896;28;20102;-75
2021/10/24 01:23:37;;;;;;;22.45;13.27;;;9.60;99.90;;;;;;5114268;28;20523;-75
2021/10/24 01:26:04;;;;;;;20.27;12.55;;;9.60;99.90;;;;;;5114244;28;20082;-75
2021/10/24 01:28:30;;;;;;;19.23;12.32;;;9.60;99.90;;;;;;5112456;28;20043;-75
2021/10/24 01:30:56;;;;;;;20.42;12.65;;;9.60;99.90;;;;;;5112880;28;20048;-75
2021/10/24 01:33:22;;;;;;;19.20;11.88;;;9.50;99.90;;;;;;5113996;28;20162;-75
2021/10/24 01:36:02;;;;;;;18.02;12.57;;;9.50;99.90;;;;;;5114045;28;20134;-75
2021/10/24 01:38:28;;;;;;;17.20;11.50;;;9.50;99.90;;;;;;5113927;28;20047;-75
2021/10/24 01:40:55;;;;;;;21.70;12.43;;;9.40;99.90;;;;;;5113905;28;20047;-75
2021/10/24 01:43:22;;;;;;;22.25;12.68;;;9.30;99.90;;;;;;5113959;28;20054;-75
2021/10/24 01:45:48;;;;;;;19.30;12.13;;;9.30;99.90;;;;;;5114049;28;20035;-75
2021/10/24 01:48:16;;;;;;;18.80;11.65;;;9.30;99.90;;;;;;5114293;28;20112;-75
2021/10/24 01:50:42;;;;;;;22.33;11.70;;;9.30;99.90;;;;;;5113289;28;20044;-75
2021/10/24 01:53:08;;;;;;;15.75;11.05;;;9.30;99.90;;;;;;5113613;28;20164;-75
2021/10/24 01:55:34;;;;;;;19.60;11.15;;;9.20;99.90;;;;;;5114453;28;20115;-75
2021/10/24 01:58:01;;;;;;;18.20;11.77;;;9.20;99.90;;;;;;5112524;28;20047;-75
2021/10/24 02:00:26;;;;;;;16.75;12.05;;;9.20;99.90;;;;;;5113392;28;20042;-75
2021/10/24 02:02:53;;;;;;;16.42;10.65;;;9.20;99.90;;;;;;5112396;28;20035;-75
2021/10/24 02:05:18;;;;;;;16.73;10.63;;;9.20;99.90;;;;;;5112360;28;20084;-75
2021/10/24 02:07:44;;;;;;;16.48;10.88;;;9.10;99.90;;;;;;5113950;28;20384;-75
2021/10/24 02:10:13;;;;;;;19.75;10.88;;;9.00;99.90;;;;;;5113525;28;20063;-75
2021/10/24 02:12:39;;;;;;;18.95;10.38;;;9.00;99.90;;;;;;5112310;28;20043;-75
2021/10/24 02:15:06;;;;;;;20.73;10.75;;;9.00;99.90;;;;;;5113994;28;20049;-75
2021/10/24 02:17:32;;;;;;;19.48;10.40;;;9.00;99.90;;;;;;5113779;28;20114;-75
2021/10/24 02:19:57;;;;;;;17.80;10.70;;;9.00;99.90;;;;;;5113385;28;20090;-75
2021/10/24 02:22:23;;;;;;;16.70;9.88;;;9.00;99.90;;;;;;5113546;28;20127;-75
2021/10/24 02:24:49;;;;;;;17.60;10.63;;;8.90;99.90;;;;;;5113686;28;20031;-75
2021/10/24 02:27:16;;;;;;;16.27;9.98;;;8.80;99.90;;;;;;5113556;28;20083;-75
2021/10/24 02:29:42;;;;;;;14.32;9.90;;;8.90;99.90;;;;;;5111919;28;20058;-75
2021/10/24 02:32:08;;;;;;;18.38;10.38;;;8.80;99.90;;;;;;5106212;28;20032;-75
2021/10/24 02:34:34;;;;;;;18.17;10.35;;;8.80;99.90;;;;;;5092043;28;20036;-75
2021/10/24 02:36:59;;;;;;;14.55;9.73;;;8.80;99.90;;;;;;5091807;28;20044;-75
2021/10/24 02:39:25;;;;;;;18.60;11.88;;;8.70;99.90;;;;;;5092653;28;20040;-75
2021/10/24 02:41:50;;;;;;;21.35;11.23;;;8.70;99.90;;;;;;5091648;28;20068;-75
2021/10/24 02:44:16;;;;;;;18.83;12.57;;;8.60;99.90;;;;;;5092283;28;20043;-75
2021/10/24 02:46:42;;;;;;;16.35;11.27;;;8.60;99.90;;;;;;5091775;28;20032;-75
2021/10/24 02:49:08;;;;;;;23.20;11.98;;;8.60;99.90;;;;;;5092562;28;20043;-75
2021/10/24 02:51:34;;;;;;;19.60;11.65;;;8.60;99.90;;;;;;5092916;28;20046;-75
2021/10/24 02:53:59;;;;;;;20.50;12.65;;;8.60;99.90;;;;;;5092850;28;20081;-75
2021/10/24 02:56:25;;;;;;;19.30;12.50;;;8.60;99.90;;;;;;5092861;28;20052;-75
2021/10/24 02:58:50;;;;;;;19.77;12.70;;;8.60;99.90;;;;;;5092875;28;20056;-75
2021/10/24 03:01:16;;;;;;;18.40;12.77;;;8.40;99.90;;;;;;5092505;28;20044;-75
2021/10/24 03:03:42;;;;;;;18.52;13.80;;;8.40;99.90;;;;;;5095134;28;20032;-75
2021/10/24 03:06:07;;;;;;;17.50;13.05;;;8.40;99.90;;;;;;5096465;28;20044;-75
2021/10/24 03:08:33;;;;;;;20.42;14.23;;;8.30;99.90;;;;;;5096585;28;20048;-75
2021/10/24 03:10:59;;;;;;;20.27;14.00;;;8.30;99.90;;;;;;5096611;28;20044;-75
2021/10/24 03:13:24;;;;;;;22.48;13.70;;;8.30;99.90;;;;;;5097125;28;20047;-75
2021/10/24 03:15:50;;;;;;;29.77;14.02;;;8.20;99.90;;;;;;5096337;28;20040;-75
2021/10/24 03:18:16;;;;;;;21.55;13.55;;;8.10;99.90;;;;;;5095051;28;20036;-75
2021/10/24 03:20:41;;;;;;;21.83;13.32;;;8.10;99.90;;;;;;5096190;28;20036;-75
2021/10/24 03:23:07;;;;;;;22.67;13.82;;;8.10;99.90;;;;;;5096243;28;20139;-75
2021/10/24 03:25:33;;;;;;;20.60;13.20;;;8.00;99.90;;;;;;5096623;28;20115;-75
2021/10/24 03:27:59;;;;;;;25.80;14.30;;;8.00;99.90;;;;;;5094890;28;20396;-75
2021/10/24 03:30:25;;;;;;;24.23;13.88;;;8.00;99.90;;;;;;5095729;28;20036;-75
2021/10/24 03:32:50;;;;;;;20.50;14.07;;;8.00;99.90;;;;;;5095884;28;20043;-75
2021/10/24 03:35:16;;;;;;;24.08;14.27;;;7.90;99.90;;;;;;5096207;28;20036;-75
2021/10/24 03:37:42;;;;;;;27.80;16.90;;;7.90;99.90;;;;;;5096429;28;20075;-75
2021/10/24 03:40:08;;;;;;;22.45;13.65;;;7.90;99.90;;;;;;5095971;28;20050;-75
2021/10/24 03:42:34;;;;;;;21.85;13.77;;;7.90;99.90;;;;;;5096197;28;20044;-75
2021/10/24 03:44:59;;;;;;;22.17;13.80;;;7.80;99.90;;;;;;5096215;28;20047;-75
2021/10/24 03:47:25;;;;;;;21.77;14.23;;;7.80;99.90;;;;;;5096046;28;20488;-75
2021/10/24 03:49:50;;;;;;;23.27;15.20;;;7.70;99.90;;;;;;5095515;28;20048;-75
2021/10/24 03:52:16;;;;;;;21.92;14.85;;;7.70;99.90;;;;;;5095524;28;20058;-75
2021/10/24 03:54:42;;;;;;;22.58;13.68;;;7.70;99.90;;;;;;5095692;28;20036;-75
2021/10/24 03:57:07;;;;;;;20.15;13.93;;;7.70;99.90;;;;;;5094443;28;20494;-75
2021/10/24 03:59:33;;;;;;;20.63;14.10;;;7.70;99.90;;;;;;5095220;28;20047;-75
2021/10/24 04:01:59;;;;;;;22.65;14.55;;;7.60;99.90;;;;;;5095599;28;20526;-75
2021/10/24 04:04:25;;;;;;;21.85;13.38;;;7.60;99.90;;;;;;5095372;28;20063;-75
2021/10/24 04:06:51;;;;;;;20.80;13.60;;;7.60;99.90;;;;;;5095354;28;20052;-75
2021/10/24 04:09:17;;;;;;;23.70;14.73;;;7.50;99.90;;;;;;5095086;28;20044;-75
2021/10/24 04:11:43;;;;;;;19.90;13.48;;;7.60;99.90;;;;;;5095258;28;20051;-75
2021/10/24 04:14:08;;;;;;;21.33;13.35;;;7.50;99.90;;;;;;5075999;28;20032;-75
2021/10/24 04:16:34;;;;;;;20.25;13.50;;;7.50;99.90;;;;;;5093860;28;20043;-75
2021/10/24 04:19:00;;;;;;;18.58;12.98;;;7.40;99.90;;;;;;5094684;28;20028;-75
2021/10/24 04:21:25;;;;;;;25.95;13.55;;;7.40;99.90;;;;;;5077109;28;20123;-75
2021/10/24 04:23:51;;;;;;;21.15;12.77;;;7.40;99.90;;;;;;5095251;28;20036;-75
2021/10/24 04:26:17;;;;;;;20.85;13.27;;;7.40;99.90;;;;;;5094196;28;20071;-75
2021/10/24 04:28:42;;;;;;;18.55;14.13;;;7.30;99.90;;;;;;5093793;28;20097;-75
2021/10/24 04:31:08;;;;;;;20.17;13.75;;;7.30;99.90;;;;;;5093682;28;20035;-75
2021/10/24 04:33:33;;;;;;;24.23;12.85;;;7.20;99.90;;;;;;5094899;28;20093;-75
2021/10/24 04:35:59;;;;;;;23.30;14.18;;;7.10;99.90;;;;;;5094192;28;20468;-75
2021/10/24 04:38:25;;;;;;;24.58;13.15;;;7.10;99.90;;;;;;5093809;28;20043;-75
2021/10/24 04:40:50;;;;;;;21.20;14.07;;;7.10;99.90;;;;;;5093428;28;20040;-75
2021/10/24 04:43:17;;;;;;;22.70;12.77;;;7.10;99.90;;;;;;5094434;28;20119;-75
2021/10/24 04:45:43;;;;;;;22.42;13.15;;;7.00;99.90;;;;;;5094577;28;20047;-75
2021/10/24 04:48:09;;;;;;;22.88;13.95;;;7.10;99.90;;;;;;5094972;28;20085;-75
2021/10/24 04:50:35;;;;;;;21.48;13.68;;;7.10;99.90;;;;;;5094254;28;20040;-75
2021/10/24 04:53:07;;;;;;;21.55;12.98;;;7.10;99.90;;;;;;5094584;28;20119;-75
2021/10/24 04:55:34;;;;;;;20.17;13.30;;;7.10;99.90;;;;;;5094417;28;20065;-75
2021/10/24 04:57:59;;;;;;;24.80;14.30;;;7.00;99.90;;;;;;5076097;28;20075;-75
2021/10/24 05:00:25;;;;;;;26.17;15.23;;;7.00;99.90;;;;;;5094317;28;20071;-75
2021/10/24 05:02:51;;;;;;;18.00;12.88;;;6.90;99.90;;;;;;5094327;28;20400;-75
2021/10/24 05:05:16;;;;;;;21.50;12.70;;;7.00;99.90;;;;;;5094335;28;20036;-75
2021/10/24 05:07:43;;;;;;;22.48;13.95;;;6.90;99.90;;;;;;5094259;28;20046;-75
2021/10/24 05:10:09;;;;;;;24.70;14.63;;;6.90;99.90;;;;;;5092546;28;20044;-75
2021/10/24 05:12:35;;;;;;;23.38;13.73;;;6.90;99.90;;;;;;5093419;28;20494;-75
2021/10/24 05:15:01;;;;;;;21.08;13.35;;;6.90;99.90;;;;;;5092912;28;20123;-75
2021/10/24 05:17:27;;;;;;;24.95;14.63;;;6.80;99.90;;;;;;5093947;28;20040;-75
2021/10/24 05:19:53;;;;;;;18.48;13.27;;;6.70;99.90;;;;;;5093858;28;20036;-75
2021/10/24 05:22:20;;;;;;;22.42;13.95;;;6.70;99.90;;;;;;5092607;28;20555;-75
2021/10/24 05:24:46;;;;;;;23.25;14.25;;;6.70;99.90;;;;;;5093796;28;20408;-75
2021/10/24 05:27:12;;;;;;;25.40;15.50;;;6.70;99.90;;;;;;5093541;28;20031;-75
2021/10/24 05:29:37;;;;;;;20.75;13.50;;;6.70;99.90;;;;;;5093484;28;20625;-75
2021/10/24 05:32:03;;;;;;;22.05;13.93;;;6.60;99.90;;;;;;5093732;28;20089;-75
2021/10/24 05:34:29;;;;;;;24.92;15.18;;;6.60;99.90;;;;;;5094032;28;20472;-75
2021/10/24 05:36:54;;;;;;;21.67;14.13;;;6.60;99.90;;;;;;5093673;28;20044;-75
2021/10/24 05:39:20;;;;;;;25.08;13.52;;;6.50;99.90;;;;;;5092228;28;20073;-75
2021/10/24 05:41:46;;;;;;;22.77;14.20;;;6.50;99.90;;;;;;5093480;28;20523;-75
2021/10/24 05:44:12;;;;;;;23.30;13.77;;;6.60;99.90;;;;;;5093731;28;20035;-75
2021/10/24 05:46:39;;;;;;;22.77;14.63;;;6.60;99.90;;;;;;5092283;28;20131;-75
2021/10/24 05:49:05;;;;;;;26.95;15.88;;;6.60;99.90;;;;;;5093468;28;20039;-75
2021/10/24 05:51:30;;;;;;;21.65;14.75;;;6.60;99.90;;;;;;5093487;28;20040;-75
2021/10/24 05:53:56;;;;;;;21.92;14.32;;;6.40;99.90;;;;;;5093836;28;20042;-75
2021/10/24 05:56:22;;;;;;;24.40;14.77;;;6.40;99.90;;;;;;5092557;28;20071;-75
2021/10/24 05:58:49;;;;;;;23.95;14.85;;;6.40;99.90;;;;;;5093275;28;20463;-75
2021/10/24 06:01:15;;;;;;;22.25;14.50;;;6.40;99.90;;;;;;5093219;28;20051;-75
2021/10/24 06:03:40;;;;;;;23.10;14.32;;;6.40;99.90;;;;;;5093265;28;20040;-75
2021/10/24 06:06:06;;;;;;;21.77;14.95;;;6.30;99.90;;;;;;5093436;28;20050;-75
2021/10/24 06:08:32;;;;;;;29.38;15.82;;;6.40;99.90;;;;;;5092953;28;20044;-75
2021/10/24 06:11:13;;;;;;;21.10;13.75;;;6.30;99.90;;;;;;5093287;28;20036;-75
2021/10/24 06:13:43;;;;;;;21.65;14.05;;;6.30;99.90;;;;;;5092510;28;20488;-75
2021/10/24 06:16:09;;;;;;;23.17;14.60;;;6.30;99.90;;;;;;5092353;28;20055;-75
2021/10/24 06:18:36;;;;;;;25.25;15.13;;;6.30;99.90;;;;;;5092711;28;20047;-75
2021/10/24 06:21:03;;;;;;;23.35;15.80;;;6.20;99.90;;;;;;5093091;28;20052;-75
2021/10/24 06:23:28;;;;;;;27.00;15.88;;;6.20;99.90;;;;;;5092975;28;20392;-75
2021/10/24 06:25:54;;;;;;;23.67;14.90;;;6.20;99.90;;;;;;5091986;28;20047;-75
2021/10/24 06:28:19;;;;;;;28.85;14.65;;;6.20;99.90;;;;;;5093047;28;20457;-75
2021/10/24 06:30:45;;;;;;;24.27;14.65;;;6.20;99.90;;;;;;5091735;28;20119;-75
2021/10/24 06:33:11;;;;;;;22.25;14.15;;;6.20;99.90;;;;;;5093192;28;20048;-75
2021/10/24 06:35:37;;;;;;;25.05;15.32;;;6.20;99.90;;;;;;5092238;28;20067;-75
2021/10/24 06:38:02;;;;;;;21.83;14.25;;;6.20;99.90;;;;;;5093138;28;20113;-75
2021/10/24 06:40:28;;;;;;;19.55;13.98;;;6.10;99.90;;;;;;5095235;28;20069;-75
2021/10/24 06:42:53;;;;;;;23.38;15.93;;;6.20;99.90;;;;;;5095510;28;20051;-75
2021/10/24 06:45:19;;;;;;;24.00;14.65;;;6.10;99.90;;;;;;5096892;28;20081;-75
2021/10/24 06:47:47;;;;;;;24.27;15.15;;;6.20;99.90;;;;;;5097192;28;20032;-75
2021/10/24 06:50:13;;;;;;;23.90;15.10;;;6.20;99.90;;;;;;5096502;28;20032;-74
2021/10/24 06:52:39;;;;;;;22.25;15.20;;;6.20;99.90;;;;;;5095399;28;20051;-75
2021/10/24 06:55:06;;;;;;;24.73;16.10;;;6.20;99.90;;;;;;5096769;28;20036;-75
2021/10/24 06:57:43;;;;;;;23.20;15.60;;;6.30;99.90;;;;;;5096719;28;20051;-75
2021/10/24 07:00:09;;;;;;;23.80;15.38;;;6.30;99.90;;;;;;5096403;28;20042;-75
2021/10/24 07:02:35;;;;;;;24.63;15.18;;;6.30;99.90;;;;;;5095293;28;20395;-75
2021/10/24 07:05:00;;;;;;;23.98;14.95;;;6.50;99.90;;;;;;5096548;28;20040;-74
2021/10/24 07:07:26;;;;;;;24.80;15.18;;;6.60;99.90;;;;;;5096455;28;20483;-75
2021/10/24 07:09:51;;;;;;;27.42;14.77;;;6.70;99.90;;;;;;5096064;28;20036;-75
2021/10/24 07:12:18;;;;;;;21.45;14.23;;;6.80;99.90;;;;;;5096693;28;20109;-75
2021/10/24 07:14:43;;;;;;;25.27;16.67;;;6.90;99.90;;;;;;5095073;28;20044;-75
2021/10/24 07:17:09;;;;;;;21.48;14.90;;;7.10;99.90;;;;;;5094795;28;20143;-75
2021/10/24 07:19:35;;;;;;;22.55;14.48;;;7.20;99.90;;;;;;5095967;28;20036;-72
2021/10/24 07:22:00;;;;;;;26.02;14.27;;;7.30;99.90;;;;;;5096098;28;20044;-73
2021/10/24 07:24:26;;;;;;;24.08;15.25;;;7.30;99.90;;;;;;5096337;28;20044;-73
2021/10/24 07:26:52;;;;;;;25.00;14.80;;;7.40;99.90;;;;;;5111858;28;20039;-73
2021/10/24 07:29:17;;;;;;;20.05;13.05;;;7.50;99.90;;;;;;5094503;28;20446;-73
2021/10/24 07:31:43;;;;;;;25.13;13.73;;;7.60;99.90;;;;;;5096328;28;20036;-73
2021/10/24 07:34:08;;;;;;;25.58;14.05;;;7.70;99.90;;;;;;5096218;28;20036;-73
2021/10/24 07:36:34;;;;;;;27.60;13.77;;;7.70;99.90;;;;;;5096300;28;20488;-73
2021/10/24 07:38:59;;;;;;;22.08;13.60;;;7.80;99.90;;;;;;5095648;28;20043;-73
2021/10/24 07:41:25;;;;;;;22.08;14.10;;;7.90;99.90;;;;;;5095842;28;20040;-73
2021/10/24 07:43:51;;;;;;;22.25;13.75;;;8.00;99.90;;;;;;5095764;28;20036;-73
2021/10/24 07:46:16;;;;;;;22.15;15.60;;;8.10;99.90;;;;;;5094729;28;20400;-73
2021/10/24 07:48:42;;;;;;;22.27;13.50;;;8.20;99.90;;;;;;5095367;28;20443;-73
2021/10/24 07:51:07;;;;;;;23.75;14.75;;;8.20;99.90;;;;;;5095732;28;20040;-73
2021/10/24 07:53:33;;;;;;;24.38;13.68;;;8.30;99.90;;;;;;5095763;28;20044;-73
2021/10/24 07:56:00;;;;;;;20.27;14.18;;;8.50;99.90;;;;;;5095772;28;20055;-71
2021/10/24 07:58:26;;;;;;;26.10;13.98;;;8.50;99.90;;;;;;5095621;28;20111;-74
2021/10/24 08:00:52;;;;;;;20.65;13.82;;;8.70;99.90;;;;;;5094433;28;20052;-74
2021/10/24 08:03:19;;;;;;;19.83;13.38;;;8.70;99.90;;;;;;5111006;28;20044;-74
2021/10/24 08:05:45;;;;;;;19.38;13.73;;;8.90;99.90;;;;;;5095715;28;20036;-74
2021/10/24 08:08:10;;;;;;;20.90;13.85;;;8.90;99.90;;;;;;5095376;28;20046;-73
2021/10/24 08:10:37;;;;;;;23.85;12.85;;;9.00;99.90;;;;;;5094928;28;20047;-73
2021/10/24 08:13:03;;;;;;;20.63;13.40;;;9.10;99.90;;;;;;5095892;28;20043;-74
2021/10/24 08:15:28;;;;;;;20.08;13.23;;;9.10;99.90;;;;;;5093769;28;20040;-74
2021/10/24 08:17:54;;;;;;;20.80;13.05;;;9.10;99.90;;;;;;5094941;28;20076;-74
2021/10/24 08:20:19;;;;;;;19.77;13.30;;;9.20;99.90;;;;;;5094900;28;20051;-74
2021/10/24 08:22:45;;;;;;;18.25;12.70;;;9.10;99.90;;;;;;5095471;28;20051;-74
2021/10/24 08:25:11;;;;;;;21.70;13.57;;;9.20;99.90;;;;;;5094998;28;20445;-73
2021/10/24 08:27:37;;;;;;;19.63;12.82;;;9.30;99.90;;;;;;5094902;28;20067;-74
2021/10/24 08:30:05;;;;;;;19.10;12.85;;;9.30;99.90;;;;;;5093421;28;20121;-73
2021/10/24 08:32:32;;;;;;;21.55;12.85;;;9.30;99.90;;;;;;5095229;28;20044;-74
2021/10/24 08:34:58;;;;;;;19.00;13.05;;;9.40;99.90;;;;;;5093623;28;20081;-75
2021/10/24 08:37:24;;;;;;;19.83;12.63;;;9.30;99.90;;;;;;5093735;28;20044;-74
2021/10/24 08:39:52;;;;;;;18.50;12.88;;;9.30;99.90;;;;;;5094761;28;20046;-74
2021/10/24 08:42:26;;;;;;;20.38;14.73;;;9.30;99.90;;;;;;5094617;28;20048;-74
2021/10/24 08:44:54;;;;;;;16.90;12.52;;;9.40;99.90;;;;;;5094347;28;20044;-73
2021/10/24 08:47:19;;;;;;;19.33;12.68;;;9.30;99.90;;;;;;5094743;28;20499;-74
2021/10/24 08:49:45;;;;;;;20.48;12.50;;;9.40;99.90;;;;;;5094287;28;20489;-73
2021/10/24 08:52:11;;;;;;;21.17;12.68;;;9.40;99.90;;;;;;5093320;28;20087;-74
2021/10/24 08:54:41;;;;;;;15.27;11.65;;;9.40;99.90;;;;;;5093246;28;20039;-74
2021/10/24 08:57:07;;;;;;;17.90;11.82;;;9.50;99.90;;;;;;5094326;28;20044;-74
2021/10/24 08:59:32;;;;;;;18.65;11.55;;;9.40;99.90;;;;;;5094013;28;20036;-74
2021/10/24 09:01:58;;;;;;;18.05;12.30;;;9.50;99.90;;;;;;5093525;28;20146;-73
2021/10/24 09:04:24;;;;;;;17.95;11.65;;;9.60;99.90;;;;;;5094491;28;20083;-74
2021/10/24 09:06:53;;;;;;;17.67;11.88;;;9.60;99.90;;;;;;5094242;28;20036;-73
2021/10/24 09:09:21;;;;;;;17.70;11.18;;;9.70;99.90;;;;;;5093889;28;20044;-74
2021/10/24 09:11:59;;;;;;;19.15;12.25;;;9.70;99.90;;;;;;5094300;28;20040;-73
2021/10/24 09:14:34;;;;;;;19.35;11.50;;;9.80;99.90;;;;;;5094162;28;20082;-73
2021/10/24 09:17:00;;;;;;;19.90;12.27;;;9.80;99.90;;;;;;5094010;28;20084;-73
2021/10/24 09:19:36;;;;;;;18.65;12.25;;;9.80;99.90;;;;;;5093853;28;20123;-74
2021/10/24 09:22:32;;;;;;;16.92;11.13;;;9.90;99.90;;;;;;5094347;28;20051;-74
2021/10/24 09:25:09;;;;;;;20.05;11.48;;;9.90;99.90;;;;;;5081438;28;20088;-71
2021/10/24 09:27:43;;;;;;;18.80;10.85;;;10.00;99.90;;;;;;5093113;28;20388;-73
2021/10/24 09:30:10;;;;;;;;;;;10.00;99.90;;;;;;5106958;28;20081;-74
2021/10/24 09:32:58;;;;;;;18.02;11.25;;;9.90;99.90;;;;;;5113907;28;19916;-74
2021/10/24 09:35:25;;;;;;;15.55;10.30;;;10.00;99.90;;;;;;5113959;28;20043;-73
2021/10/24 09:37:51;;;;;;;14.45;9.50;;;10.00;99.90;;;;;;5114052;28;20097;-74
2021/10/24 09:40:23;;;;;;;15.43;10.68;;;10.10;99.90;;;;;;5113737;28;20036;-74
2021/10/24 09:42:49;;;;;;;18.98;10.20;;;10.10;99.90;;;;;;5113899;28;20054;-73
2021/10/24 09:45:16;;;;;;;14.02;9.75;;;10.10;99.90;;;;;;5113831;28;20035;-74
2021/10/24 09:47:45;;;;;;;15.15;9.30;;;10.10;99.90;;;;;;5113725;28;20055;-74
2021/10/24 09:50:30;;;;;;;16.67;10.30;;;10.20;99.90;;;;;;5113465;28;20042;-73
2021/10/24 09:53:08;;;;;;;13.95;9.45;;;10.20;99.90;;;;;;5113855;28;20503;-73
2021/10/24 09:55:33;;;;;;;19.42;10.73;;;10.30;99.90;;;;;;5114334;28;20036;-74
2021/10/24 09:58:02;;;;;;;13.50;9.43;;;10.30;99.90;;;;;;5112269;28;20040;-74
2021/10/24 10:00:28;;;;;;;14.93;10.10;;;10.30;99.90;;;;;;5113685;28;20035;-74
2021/10/24 10:02:54;;;;;;;15.07;9.93;;;10.30;99.90;;;;;;5112522;28;20047;-74
2021/10/24 10:05:21;;;;;;;16.63;10.38;;;10.30;99.90;;;;;;5112617;28;20063;-74
2021/10/24 10:07:46;;;;;;;14.60;9.55;;;10.40;99.90;;;;;;5114000;28;20114;-74
2021/10/24 10:10:12;;;;;;;15.63;9.88;;;10.40;99.90;;;;;;5113135;28;20522;-74
2021/10/24 10:12:42;;;;;;;14.18;9.18;;;10.50;99.90;;;;;;5114236;28;20051;-74
2021/10/24 10:15:10;;;;;;;13.90;9.05;;;10.50;99.90;;;;;;5117963;28;20039;-73
2021/10/24 10:17:37;;;;;;;12.82;8.88;;;10.50;99.90;;;;;;5117675;28;20061;-74
2021/10/24 10:20:23;;;;;;;14.45;8.75;;;10.60;99.90;;;;;;5117214;28;20047;-74
2021/10/24 10:23:09;;;;;;;15.07;9.02;;;10.70;99.90;;;;;;5117372;28;20152;-73
2021/10/24 10:25:37;;;;;;;13.65;8.45;;;10.70;99.90;;;;;;5117650;28;20043;-74
2021/10/24 10:28:04;;;;;;;15.32;8.57;;;10.80;99.90;;;;;;5117802;28;20118;-74
2021/10/24 10:30:39;;;;;;;13.13;9.60;;;10.80;99.90;;;;;;5116583;28;20079;-71
2021/10/24 10:33:29;;;;;;;16.38;8.43;;;10.90;99.90;;;;;;5116389;28;20044;-74
2021/10/24 10:35:55;;;;;;;12.73;8.15;;;10.90;99.90;;;;;;5117538;28;20039;-74
2021/10/24 10:38:42;;;;;;;14.18;8.60;;;10.90;99.90;;;;;;5117364;28;20036;-74
2021/10/24 10:41:10;;;;;;;13.85;8.00;;;11.00;99.90;;;;;;5116016;28;20244;-74
2021/10/24 10:43:36;;;;;;;14.38;7.80;;;11.00;99.90;;;;;;5117000;28;20036;-74
2021/10/24 10:46:04;;;;;;;10.38;7.53;;;11.00;99.90;;;;;;5116147;28;20100;-74
2021/10/24 10:48:38;;;;;;;11.88;7.88;;;11.10;99.90;;;;;;5117200;28;20386;-75
2021/10/24 10:51:24;;;;;;;14.38;8.43;;;11.10;99.90;;;;;;5117631;28;20534;-75
2021/10/24 10:54:04;;;;;;;12.00;7.63;;;11.20;99.90;;;;;;5116979;28;20031;-74
2021/10/24 10:56:46;;;;;;;12.25;7.57;;;11.20;99.90;;;;;;5117315;28;20043;-74
2021/10/24 10:59:27;;;;;;;10.23;6.18;;;11.30;99.90;;;;;;5116974;28;20032;-74
2021/10/24 11:01:53;;;;;;;10.95;7.57;;;11.30;99.90;;;;;;5115943;28;20097;-74
2021/10/24 11:04:21;;;;;;;12.95;7.30;;;11.30;99.90;;;;;;5115922;28;20039;-74
2021/10/24 11:06:49;;;;;;;14.90;7.03;;;11.40;98.10;;;;;;5117252;28;20065;-74
2021/10/24 11:09:36;;;;;;;12.65;6.47;;;11.40;98.70;;;;;;5115840;28;20035;-74
2021/10/24 11:12:05;;;;;;;8.63;6.20;;;11.50;98.40;;;;;;5115975;28;20403;-74
2021/10/24 11:14:33;;;;;;;9.73;6.05;;;11.50;98.80;;;;;;5116902;28;20059;-74
2021/10/24 11:17:02;;;;;;;8.20;5.78;;;11.60;98.20;;;;;;5116611;28;20035;-74
2021/10/24 11:19:38;;;;;;;11.60;6.10;;;11.60;97.30;;;;;;5115557;28;20047;-74
2021/10/24 11:22:16;;;;;;;10.63;5.72;;;11.70;98.20;;;;;;5115224;28;20060;-74
2021/10/24 11:24:44;;;;;;;7.35;5.82;;;11.70;98.20;;;;;;5116228;28;20044;-73
2021/10/24 11:27:16;;;;;;;6.95;5.15;;;11.80;97.80;;;;;;5116573;28;20122;-74
2021/10/24 11:30:06;;;;;;;7.05;4.60;;;11.80;97.40;;;;;;5116055;28;20039;-74
2021/10/24 11:32:40;;;;;;;8.38;5.75;;;11.80;96.00;;;;;;5106100;28;20079;-74
2021/10/24 11:35:14;;;;;;;8.27;4.82;;;11.90;96.20;;;;;;5116695;28;20035;-74
2021/10/24 11:37:45;;;;;;;7.43;4.40;;;11.90;95.90;;;;;;5115534;28;20052;-74
2021/10/24 11:40:29;;;;;;;8.25;4.30;;;11.90;93.70;;;;;;5116237;28;20039;-74
2021/10/24 11:43:17;;;;;;;8.27;5.30;;;12.00;93.80;;;;;;5116160;28;20075;-74
2021/10/24 11:45:49;;;;;;;6.80;4.30;;;12.00;94.70;;;;;;5114222;28;20441;-74
2021/10/24 11:48:21;;;;;;;6.38;3.95;;;12.00;92.40;;;;;;5116229;28;20101;-74
2021/10/24 11:50:56;;;;;;;9.18;4.57;;;12.00;92.00;;;;;;5115800;28;20074;-75
2021/10/24 11:53:37;;;;;;;7.38;4.15;;;12.10;91.90;;;;;;5115287;28;20126;-74
2021/10/24 11:56:19;;;;;;;8.25;3.97;;;12.10;92.10;;;;;;5116113;28;20173;-74
2021/10/24 11:59:13;;;;;;;11.82;4.70;;;12.10;91.80;;;;;;5115590;28;20031;-74
2021/10/24 12:01:40;;;;;;;6.63;4.00;;;12.20;92.10;;;;;;5115927;28;20040;-74
2021/10/24 12:04:11;;;;;;;8.65;3.58;;;12.20;91.90;;;;;;5114790;28;20039;-72
2021/10/24 12:07:03;;;;;;;7.03;4.10;;;12.30;92.10;;;;;;5116100;28;20036;-75
2021/10/24 12:09:43;;;;;;;6.25;4.47;;;12.30;92.20;;;;;;5115394;28;20055;-74
2021/10/24 12:12:11;;;;;;;9.20;4.30;;;12.30;92.00;;;;;;5115670;28;20039;-71
2021/10/24 12:14:54;;;;;;;10.90;4.25;;;12.30;92.20;;;;;;5115689;28;20088;-69
2021/10/24 12:17:25;;;;;;;54.28;9.93;;;12.30;91.50;;;;;;5115572;28;20118;-70
2021/10/24 12:20:11;;;;;;;63.17;9.05;;;12.40;90.70;;;;;;5115457;28;20046;-71
2021/10/24 12:22:39;;;;;;;28.23;5.80;;;12.40;88.30;;;;;;5114192;28;20561;-70
2021/10/24 12:25:05;;;;;;;8.88;3.95;;;12.40;90.10;;;;;;5115935;27;20089;-70
2021/10/24 12:27:34;;;;;;;8.13;4.40;;;12.50;91.40;;;;;;5116005;28;20046;-70
2021/10/24 12:30:12;;;;;;;9.98;4.55;;;12.40;92.50;;;;;;5114316;28;20050;-71
2021/10/24 12:33:05;;;;;;;9.50;3.97;;;12.40;93.00;;;;;;5115443;28;20123;-71
2021/10/24 12:35:45;;;;;;;6.70;3.88;;;12.50;92.90;;;;;;5096269;28;20043;-72
2021/10/24 12:38:11;;;;;;;7.50;4.00;;;12.50;93.20;;;;;;5114369;28;20117;-70
2021/10/24 12:40:37;;;;;;;7.20;4.30;;;12.50;92.60;;;;;;5113795;28;20418;-71
2021/10/24 12:43:16;;;;;;;9.13;3.65;;;12.50;91.70;;;;;;5113672;28;20044;-72